sensor_id;sensor_type;location;lat;lon;timestamp;pressure;altitude;pressure_sealevel;temperature;humidity
64853;BME280;56050;55.558;-4.644;2023-02-05T00:00:50;104239.72;;;7.91;62.00
64853;BME280;56050;55.558;-4.644;2023-02-05T00:03:16;104258.00;;;7.89;62.18
64853;BME280;56050;55.558;-4.644;2023-02-05T00:05:41;104271.41;;;7.89;61.94
64853;BME280;56050;55.558;-4.644;2023-02-05T00:08:07;104285.09;;;7.87;61.89
64853;BME280;56050;55.558;-4.644;2023-02-05T00:10:32;104302.81;;;7.88;62.02
64853;BME280;56050;55.558;-4.644;2023-02-05T00:12:57;104309.25;;;7.87;61.96
64853;BME280;56050;55.558;-4.644;2023-02-05T00:15:23;104309.00;;;7.89;61.85
64853;BME280;56050;55.558;-4.644;2023-02-05T00:17:48;104316.53;;;7.87;61.67
64853;BME280;56050;55.558;-4.644;2023-02-05T00:20:13;104321.59;;;7.88;61.67
64853;BME280;56050;55.558;-4.644;2023-02-05T00:22:39;104321.09;;;7.86;61.48
64853;BME280;56050;55.558;-4.644;2023-02-05T00:25:04;104322.16;;;7.85;61.50
64853;BME280;56050;55.558;-4.644;2023-02-05T00:27:31;104323.25;;;7.84;61.76
64853;BME280;56050;55.558;-4.644;2023-02-05T00:29:57;104333.19;;;7.84;61.74
64853;BME280;56050;55.558;-4.644;2023-02-05T00:32:22;104348.75;;;7.87;61.79
64853;BME280;56050;55.558;-4.644;2023-02-05T00:34:48;104368.84;;;7.89;61.90
64853;BME280;56050;55.558;-4.644;2023-02-05T00:37:13;104371.75;;;7.93;61.94
64853;BME280;56050;55.558;-4.644;2023-02-05T00:39:39;104373.63;;;7.97;61.91
64853;BME280;56050;55.558;-4.644;2023-02-05T00:42:04;104370.09;;;8.02;61.93
64853;BME280;56050;55.558;-4.644;2023-02-05T00:44:30;104368.47;;;8.06;61.67
64853;BME280;56050;55.558;-4.644;2023-02-05T00:46:55;104365.22;;;8.09;61.59
64853;BME280;56050;55.558;-4.644;2023-02-05T00:49:20;104366.56;;;8.06;61.60
64853;BME280;56050;55.558;-4.644;2023-02-05T00:51:45;104370.41;;;8.00;61.48
64853;BME280;56050;55.558;-4.644;2023-02-05T00:54:11;104374.75;;;7.91;61.57
64853;BME280;56050;55.558;-4.644;2023-02-05T00:56:36;104376.94;;;7.84;61.70
64853;BME280;56050;55.558;-4.644;2023-02-05T00:59:02;104375.38;;;7.78;61.80
64853;BME280;56050;55.558;-4.644;2023-02-05T01:01:27;104383.44;;;7.73;61.92
64853;BME280;56050;55.558;-4.644;2023-02-05T01:03:53;104392.81;;;7.70;62.14
64853;BME280;56050;55.558;-4.644;2023-02-05T01:06:19;104395.81;;;7.69;62.12
64853;BME280;56050;55.558;-4.644;2023-02-05T01:08:45;104397.97;;;7.67;62.16
64853;BME280;56050;55.558;-4.644;2023-02-05T01:11:10;104405.72;;;7.68;62.10
64853;BME280;56050;55.558;-4.644;2023-02-05T01:13:37;104419.16;;;7.68;62.16
64853;BME280;56050;55.558;-4.644;2023-02-05T01:16:03;104418.88;;;7.65;62.09
64853;BME280;56050;55.558;-4.644;2023-02-05T01:18:28;104414.63;;;7.64;61.99
64853;BME280;56050;55.558;-4.644;2023-02-05T01:20:53;104410.06;;;7.59;61.96
64853;BME280;56050;55.558;-4.644;2023-02-05T01:23:19;104409.03;;;7.55;62.44
64853;BME280;56050;55.558;-4.644;2023-02-05T01:25:44;104422.47;;;7.50;62.49
64853;BME280;56050;55.558;-4.644;2023-02-05T01:28:10;104424.59;;;7.48;62.44
64853;BME280;56050;55.558;-4.644;2023-02-05T01:30:35;104436.69;;;7.46;62.47
64853;BME280;56050;55.558;-4.644;2023-02-05T01:33:01;104442.03;;;7.46;62.58
64853;BME280;56050;55.558;-4.644;2023-02-05T01:35:26;104447.16;;;7.47;62.76
64853;BME280;56050;55.558;-4.644;2023-02-05T01:37:52;104460.00;;;7.50;62.69
64853;BME280;56050;55.558;-4.644;2023-02-05T01:40:18;104462.94;;;7.49;62.54
64853;BME280;56050;55.558;-4.644;2023-02-05T01:42:44;104453.31;;;7.48;62.76
64853;BME280;56050;55.558;-4.644;2023-02-05T01:47:52;104466.19;;;7.46;62.91
64853;BME280;56050;55.558;-4.644;2023-02-05T01:50:24;104471.03;;;7.44;63.05
64853;BME280;56050;55.558;-4.644;2023-02-05T01:52:51;104486.59;;;7.42;63.10
64853;BME280;56050;55.558;-4.644;2023-02-05T01:55:18;104493.03;;;7.41;63.19
64853;BME280;56050;55.558;-4.644;2023-02-05T01:57:44;104495.44;;;7.42;63.07
64853;BME280;56050;55.558;-4.644;2023-02-05T02:00:11;104486.88;;;7.45;63.17
64853;BME280;56050;55.558;-4.644;2023-02-05T02:02:36;104476.38;;;7.49;62.92
64853;BME280;56050;55.558;-4.644;2023-02-05T02:05:08;104468.09;;;7.45;63.03
64853;BME280;56050;55.558;-4.644;2023-02-05T02:07:35;104458.16;;;7.41;63.17
64853;BME280;56050;55.558;-4.644;2023-02-05T02:10:00;104466.50;;;7.39;63.15
64853;BME280;56050;55.558;-4.644;2023-02-05T02:12:29;104464.34;;;7.36;63.02
64853;BME280;56050;55.558;-4.644;2023-02-05T02:15:00;104466.22;;;7.36;63.21
64853;BME280;56050;55.558;-4.644;2023-02-05T02:17:31;104465.41;;;7.35;63.07
64853;BME280;56050;55.558;-4.644;2023-02-05T02:20:09;104465.94;;;7.32;63.10
64853;BME280;56050;55.558;-4.644;2023-02-05T02:22:54;104475.63;;;7.28;62.98
64853;BME280;56050;55.558;-4.644;2023-02-05T02:28:10;104460.63;;;7.22;63.14
64853;BME280;56050;55.558;-4.644;2023-02-05T02:30:45;104469.75;;;7.16;63.14
64853;BME280;56050;55.558;-4.644;2023-02-05T02:33:25;104477.50;;;7.13;63.29
64853;BME280;56050;55.558;-4.644;2023-02-05T02:36:08;104491.50;;;7.09;63.19
64853;BME280;56050;55.558;-4.644;2023-02-05T02:38:44;104500.59;;;7.03;63.00
64853;BME280;56050;55.558;-4.644;2023-02-05T02:41:25;104510.78;;;6.96;63.09
64853;BME280;56050;55.558;-4.644;2023-02-05T02:43:57;104502.75;;;6.91;63.00
64853;BME280;56050;55.558;-4.644;2023-02-05T02:46:47;104514.53;;;6.85;63.05
64853;BME280;56050;55.558;-4.644;2023-02-05T02:49:15;104512.13;;;6.84;63.17
64853;BME280;56050;55.558;-4.644;2023-02-05T02:51:43;104516.41;;;6.80;63.21
64853;BME280;56050;55.558;-4.644;2023-02-05T02:54:13;104509.97;;;6.76;63.17
64853;BME280;56050;55.558;-4.644;2023-02-05T02:56:40;104520.16;;;6.69;63.03
64853;BME280;56050;55.558;-4.644;2023-02-05T02:59:27;104517.75;;;6.57;62.98
64853;BME280;56050;55.558;-4.644;2023-02-05T03:01:56;104520.13;;;6.48;63.04
64853;BME280;56050;55.558;-4.644;2023-02-05T03:06:53;104510.19;;;6.29;63.11
64853;BME280;56050;55.558;-4.644;2023-02-05T03:09:29;104514.97;;;6.22;63.36
64853;BME280;56050;55.558;-4.644;2023-02-05T03:11:56;104514.13;;;6.16;63.48
64853;BME280;56050;55.558;-4.644;2023-02-05T03:14:22;104516.81;;;6.11;63.39
64853;BME280;56050;55.558;-4.644;2023-02-05T03:16:48;104524.28;;;6.04;63.39
64853;BME280;56050;55.558;-4.644;2023-02-05T03:19:13;104528.53;;;5.95;63.31
64853;BME280;56050;55.558;-4.644;2023-02-05T03:21:45;104537.00;;;5.82;63.34
64853;BME280;56050;55.558;-4.644;2023-02-05T03:24:11;104543.09;;;5.72;63.46
64853;BME280;56050;55.558;-4.644;2023-02-05T03:26:37;104539.56;;;5.67;63.73
64853;BME280;56050;55.558;-4.644;2023-02-05T03:29:06;104542.50;;;5.60;63.74
64853;BME280;56050;55.558;-4.644;2023-02-05T03:45:25;104540.50;;;5.41;63.84
64853;BME280;56050;55.558;-4.644;2023-02-05T03:50:58;104529.50;;;5.37;63.96
64853;BME280;56050;55.558;-4.644;2023-02-05T03:53:35;104550.38;;;5.40;64.25
64853;BME280;56050;55.558;-4.644;2023-02-05T03:56:21;104554.94;;;5.45;64.16
64853;BME280;56050;55.558;-4.644;2023-02-05T03:58:52;104565.91;;;5.43;64.09
64853;BME280;56050;55.558;-4.644;2023-02-05T04:01:19;104572.59;;;5.41;63.86
64853;BME280;56050;55.558;-4.644;2023-02-05T04:03:46;104571.47;;;5.37;63.80
64853;BME280;56050;55.558;-4.644;2023-02-05T04:06:12;104571.75;;;5.35;63.92
64853;BME280;56050;55.558;-4.644;2023-02-05T04:08:37;104567.13;;;5.30;63.94
64853;BME280;56050;55.558;-4.644;2023-02-05T04:11:03;104561.00;;;5.30;64.08
64853;BME280;56050;55.558;-4.644;2023-02-05T04:13:29;104565.28;;;5.31;64.24
64853;BME280;56050;55.558;-4.644;2023-02-05T04:15:54;104567.44;;;5.34;64.00
64853;BME280;56050;55.558;-4.644;2023-02-05T04:18:20;104583.19;;;5.30;63.95
64853;BME280;56050;55.558;-4.644;2023-02-05T04:20:45;104605.34;;;5.26;64.07
64853;BME280;56050;55.558;-4.644;2023-02-05T04:23:11;104608.47;;;5.18;64.00
64853;BME280;56050;55.558;-4.644;2023-02-05T04:25:37;104606.81;;;5.12;63.95
64853;BME280;56050;55.558;-4.644;2023-02-05T04:28:04;104597.13;;;5.06;64.19
64853;BME280;56050;55.558;-4.644;2023-02-05T04:30:30;104594.72;;;5.04;64.18
64853;BME280;56050;55.558;-4.644;2023-02-05T04:32:56;104590.69;;;5.02;64.10
64853;BME280;56050;55.558;-4.644;2023-02-05T04:35:21;104598.16;;;5.00;64.38
64853;BME280;56050;55.558;-4.644;2023-02-05T04:37:47;104605.06;;;4.96;64.36
64853;BME280;56050;55.558;-4.644;2023-02-05T04:40:12;104610.91;;;4.93;64.49
64853;BME280;56050;55.558;-4.644;2023-02-05T04:42:38;104604.75;;;4.92;64.41
64853;BME280;56050;55.558;-4.644;2023-02-05T04:45:03;104594.66;;;4.94;64.69
64853;BME280;56050;55.558;-4.644;2023-02-05T04:47:30;104574.88;;;4.95;64.63
64853;BME280;56050;55.558;-4.644;2023-02-05T04:49:56;104576.50;;;4.96;64.80
64853;BME280;56050;55.558;-4.644;2023-02-05T04:52:22;104577.31;;;4.97;64.67
64853;BME280;56050;55.558;-4.644;2023-02-05T04:54:47;104584.00;;;4.99;64.60
64853;BME280;56050;55.558;-4.644;2023-02-05T04:57:13;104593.88;;;4.99;64.59
64853;BME280;56050;55.558;-4.644;2023-02-05T04:59:38;104599.72;;;4.96;64.38
64853;BME280;56050;55.558;-4.644;2023-02-05T05:02:03;104602.91;;;4.93;64.46
64853;BME280;56050;55.558;-4.644;2023-02-05T05:04:29;104595.16;;;4.91;64.58
64853;BME280;56050;55.558;-4.644;2023-02-05T05:06:54;104588.44;;;4.89;64.78
64853;BME280;56050;55.558;-4.644;2023-02-05T05:09:20;104588.94;;;4.86;64.95
64853;BME280;56050;55.558;-4.644;2023-02-05T05:11:49;104599.63;;;4.86;64.95
64853;BME280;56050;55.558;-4.644;2023-02-05T05:14:15;104604.97;;;4.86;64.63
64853;BME280;56050;55.558;-4.644;2023-02-05T05:16:40;104611.06;;;4.81;64.65
64853;BME280;56050;55.558;-4.644;2023-02-05T05:19:06;104613.94;;;4.74;64.87
64853;BME280;56050;55.558;-4.644;2023-02-05T05:21:31;104616.28;;;4.71;64.99
64853;BME280;56050;55.558;-4.644;2023-02-05T05:23:57;104617.59;;;4.68;65.06
64853;BME280;56050;55.558;-4.644;2023-02-05T05:26:22;104613.31;;;4.67;64.93
64853;BME280;56050;55.558;-4.644;2023-02-05T05:28:52;104609.59;;;4.68;64.98
64853;BME280;56050;55.558;-4.644;2023-02-05T05:31:18;104610.16;;;4.70;64.89
64853;BME280;56050;55.558;-4.644;2023-02-05T05:33:44;104615.25;;;4.72;64.97
64853;BME280;56050;55.558;-4.644;2023-02-05T05:36:10;104618.97;;;4.71;64.98
64853;BME280;56050;55.558;-4.644;2023-02-05T05:38:35;104622.13;;;4.68;65.16
64853;BME280;56050;55.558;-4.644;2023-02-05T05:41:01;104619.16;;;4.64;65.15
64853;BME280;56050;55.558;-4.644;2023-02-05T05:43:45;104625.00;;;4.61;65.14
64853;BME280;56050;55.558;-4.644;2023-02-05T05:46:18;104625.25;;;4.60;65.25
64853;BME280;56050;55.558;-4.644;2023-02-05T05:48:54;104617.25;;;4.60;65.54
64853;BME280;56050;55.558;-4.644;2023-02-05T05:51:20;104610.59;;;4.62;65.70
64853;BME280;56050;55.558;-4.644;2023-02-05T05:53:46;104609.06;;;4.66;65.65
64853;BME280;56050;55.558;-4.644;2023-02-05T05:56:12;104593.63;;;4.73;65.73
64853;BME280;56050;55.558;-4.644;2023-02-05T05:58:38;104590.50;;;4.82;65.46
64853;BME280;56050;55.558;-4.644;2023-02-05T06:01:04;104584.66;;;4.85;65.34
64853;BME280;56050;55.558;-4.644;2023-02-05T06:03:30;104590.00;;;4.85;65.52
64853;BME280;56050;55.558;-4.644;2023-02-05T06:05:55;104580.34;;;4.84;65.71
64853;BME280;56050;55.558;-4.644;2023-02-05T06:08:21;104565.94;;;4.85;65.78
64853;BME280;56050;55.558;-4.644;2023-02-05T06:10:46;104563.81;;;4.87;65.73
64853;BME280;56050;55.558;-4.644;2023-02-05T06:13:12;104561.47;;;4.90;65.72
64853;BME280;56050;55.558;-4.644;2023-02-05T06:15:37;104557.47;;;4.93;65.65
64853;BME280;56050;55.558;-4.644;2023-02-05T06:18:03;104562.59;;;4.94;65.52
64853;BME280;56050;55.558;-4.644;2023-02-05T06:20:28;104548.16;;;4.95;65.54
64853;BME280;56050;55.558;-4.644;2023-02-05T06:22:54;104533.75;;;4.96;65.39
64853;BME280;56050;55.558;-4.644;2023-02-05T06:25:19;104551.63;;;4.96;65.49
64853;BME280;56050;55.558;-4.644;2023-02-05T06:27:45;104549.22;;;4.94;65.76
64853;BME280;56050;55.558;-4.644;2023-02-05T06:30:11;104537.41;;;4.90;65.67
64853;BME280;56050;55.558;-4.644;2023-02-05T06:32:36;104535.25;;;4.87;65.50
64853;BME280;56050;55.558;-4.644;2023-02-05T06:35:02;104532.59;;;4.87;65.80
64853;BME280;56050;55.558;-4.644;2023-02-05T06:37:28;104519.22;;;4.87;65.74
64853;BME280;56050;55.558;-4.644;2023-02-05T06:39:55;104531.22;;;4.85;65.96
64853;BME280;56050;55.558;-4.644;2023-02-05T06:42:20;104544.03;;;4.83;66.09
64853;BME280;56050;55.558;-4.644;2023-02-05T06:44:45;104529.06;;;4.82;66.31
64853;BME280;56050;55.558;-4.644;2023-02-05T06:47:11;104505.03;;;4.82;66.35
64853;BME280;56050;55.558;-4.644;2023-02-05T06:49:37;104498.34;;;4.84;66.36
64853;BME280;56050;55.558;-4.644;2023-02-05T06:52:02;104517.09;;;4.89;66.28
64853;BME280;56050;55.558;-4.644;2023-02-05T06:54:28;104514.44;;;4.89;66.19
64853;BME280;56050;55.558;-4.644;2023-02-05T06:56:53;104517.91;;;4.90;66.49
64853;BME280;56050;55.558;-4.644;2023-02-05T06:59:18;104508.53;;;4.87;66.41
64853;BME280;56050;55.558;-4.644;2023-02-05T07:01:44;104511.22;;;4.87;66.48
64853;BME280;56050;55.558;-4.644;2023-02-05T07:04:09;104505.88;;;4.87;66.65
64853;BME280;56050;55.558;-4.644;2023-02-05T07:06:35;104514.19;;;4.91;66.45
64853;BME280;56050;55.558;-4.644;2023-02-05T07:09:00;104527.28;;;4.92;66.64
64853;BME280;56050;55.558;-4.644;2023-02-05T07:11:25;104531.81;;;4.92;66.71
64853;BME280;56050;55.558;-4.644;2023-02-05T07:13:51;104533.19;;;4.94;66.63
64853;BME280;56050;55.558;-4.644;2023-02-05T07:16:16;104545.25;;;4.97;66.49
64853;BME280;56050;55.558;-4.644;2023-02-05T07:18:42;104550.84;;;5.00;66.40
64853;BME280;56050;55.558;-4.644;2023-02-05T07:21:08;104552.75;;;5.00;66.56
64853;BME280;56050;55.558;-4.644;2023-02-05T07:23:35;104552.75;;;5.00;66.44
64853;BME280;56050;55.558;-4.644;2023-02-05T07:26:08;104538.81;;;4.98;66.46
64853;BME280;56050;55.558;-4.644;2023-02-05T07:28:34;104534.28;;;4.98;66.47
64853;BME280;56050;55.558;-4.644;2023-02-05T07:31:06;104535.59;;;4.96;66.53
64853;BME280;56050;55.558;-4.644;2023-02-05T07:33:32;104539.81;;;4.92;66.64
64853;BME280;56050;55.558;-4.644;2023-02-05T07:36:02;104532.34;;;4.89;66.78
64853;BME280;56050;55.558;-4.644;2023-02-05T07:38:27;104528.88;;;4.88;66.71
64853;BME280;56050;55.558;-4.644;2023-02-05T07:40:53;104533.41;;;4.88;66.67
64853;BME280;56050;55.558;-4.644;2023-02-05T07:43:18;104541.09;;;4.84;66.88
64853;BME280;56050;55.558;-4.644;2023-02-05T07:45:43;104524.53;;;4.82;66.83
64853;BME280;56050;55.558;-4.644;2023-02-05T07:48:09;104534.91;;;4.79;66.79
64853;BME280;56050;55.558;-4.644;2023-02-05T07:50:34;104528.22;;;4.76;66.99
64853;BME280;56050;55.558;-4.644;2023-02-05T07:53:00;104523.13;;;4.74;66.86
64853;BME280;56050;55.558;-4.644;2023-02-05T07:55:25;104516.44;;;4.72;66.96
64853;BME280;56050;55.558;-4.644;2023-02-05T07:57:51;104530.56;;;4.72;66.84
64853;BME280;56050;55.558;-4.644;2023-02-05T08:00:16;104537.81;;;4.72;66.75
64853;BME280;56050;55.558;-4.644;2023-02-05T08:02:42;104529.22;;;4.70;66.79
64853;BME280;56050;55.558;-4.644;2023-02-05T08:05:07;104538.03;;;4.70;66.76
64853;BME280;56050;55.558;-4.644;2023-02-05T08:07:33;104542.56;;;4.70;66.88
64853;BME280;56050;55.558;-4.644;2023-02-05T08:09:58;104546.59;;;4.72;66.80
64853;BME280;56050;55.558;-4.644;2023-02-05T08:12:24;104553.81;;;4.72;66.64
64853;BME280;56050;55.558;-4.644;2023-02-05T08:14:49;104541.75;;;4.69;66.67
64853;BME280;56050;55.558;-4.644;2023-02-05T08:17:16;104540.16;;;4.68;66.55
64853;BME280;56050;55.558;-4.644;2023-02-05T08:19:42;104541.72;;;4.64;66.51
64853;BME280;56050;55.558;-4.644;2023-02-05T08:22:07;104519.25;;;4.60;66.62
64853;BME280;56050;55.558;-4.644;2023-02-05T08:24:33;104500.03;;;4.58;66.45
64853;BME280;56050;55.558;-4.644;2023-02-05T08:26:58;104503.19;;;4.55;66.73
64853;BME280;56050;55.558;-4.644;2023-02-05T08:29:24;104503.44;;;4.54;66.64
64853;BME280;56050;55.558;-4.644;2023-02-05T08:31:49;104492.19;;;4.52;66.65
64853;BME280;56050;55.558;-4.644;2023-02-05T08:34:15;104479.66;;;4.52;66.80
64853;BME280;56050;55.558;-4.644;2023-02-05T08:36:40;104477.81;;;4.53;66.78
64853;BME280;56050;55.558;-4.644;2023-02-05T08:39:05;104498.91;;;4.54;66.74
64853;BME280;56050;55.558;-4.644;2023-02-05T08:41:31;104501.31;;;4.56;66.66
64853;BME280;56050;55.558;-4.644;2023-02-05T08:43:56;104507.44;;;4.56;66.57
64853;BME280;56050;55.558;-4.644;2023-02-05T08:46:23;104518.72;;;4.58;66.69
64853;BME280;56050;55.558;-4.644;2023-02-05T08:48:51;104524.59;;;4.60;66.51
64853;BME280;56050;55.558;-4.644;2023-02-05T08:51:18;104545.47;;;4.63;66.77
64853;BME280;56050;55.558;-4.644;2023-02-05T08:53:44;104546.56;;;4.67;66.63
64853;BME280;56050;55.558;-4.644;2023-02-05T08:56:10;104561.56;;;4.73;66.49
64853;BME280;56050;55.558;-4.644;2023-02-05T08:58:38;104570.19;;;4.81;66.33
64853;BME280;56050;55.558;-4.644;2023-02-05T09:01:11;104570.25;;;4.86;66.41
64853;BME280;56050;55.558;-4.644;2023-02-05T09:03:37;104555.00;;;4.86;66.34
64853;BME280;56050;55.558;-4.644;2023-02-05T09:06:08;104570.53;;;4.89;66.16
64853;BME280;56050;55.558;-4.644;2023-02-05T09:08:34;104562.28;;;4.91;66.24
64853;BME280;56050;55.558;-4.644;2023-02-05T09:10:59;104544.63;;;4.90;66.25
64853;BME280;56050;55.558;-4.644;2023-02-05T09:13:25;104542.47;;;4.87;66.15
64853;BME280;56050;55.558;-4.644;2023-02-05T09:15:50;104541.66;;;4.86;66.08
64853;BME280;56050;55.558;-4.644;2023-02-05T09:18:16;104549.38;;;4.83;66.20
64853;BME280;56050;55.558;-4.644;2023-02-05T09:20:46;104557.63;;;4.81;66.36
64853;BME280;56050;55.558;-4.644;2023-02-05T09:23:14;104560.06;;;4.83;66.45
64853;BME280;56050;55.558;-4.644;2023-02-05T09:25:40;104567.25;;;4.82;66.41
64853;BME280;56050;55.558;-4.644;2023-02-05T09:28:07;104573.41;;;4.83;66.36
64853;BME280;56050;55.558;-4.644;2023-02-05T09:30:38;104565.94;;;4.85;66.51
64853;BME280;56050;55.558;-4.644;2023-02-05T09:33:04;104578.00;;;4.87;66.56
64853;BME280;56050;55.558;-4.644;2023-02-05T09:35:33;104576.69;;;4.90;66.69
64853;BME280;56050;55.558;-4.644;2023-02-05T09:37:59;104574.31;;;4.93;66.72
64853;BME280;56050;55.558;-4.644;2023-02-05T09:40:33;104577.53;;;4.95;66.57
64853;BME280;56050;55.558;-4.644;2023-02-05T09:48:55;104539.97;;;5.07;66.47
64853;BME280;56050;55.558;-4.644;2023-02-05T09:51:41;104536.25;;;5.08;66.39
64853;BME280;56050;55.558;-4.644;2023-02-05T09:54:20;104534.94;;;5.10;66.46
64853;BME280;56050;55.558;-4.644;2023-02-05T09:56:47;104518.38;;;5.13;66.59
64853;BME280;56050;55.558;-4.644;2023-02-05T09:59:18;104531.47;;;5.15;66.32
64853;BME280;56050;55.558;-4.644;2023-02-05T10:01:50;104534.69;;;5.17;66.55
64853;BME280;56050;55.558;-4.644;2023-02-05T10:04:16;104541.16;;;5.21;66.63
64853;BME280;56050;55.558;-4.644;2023-02-05T10:10:17;104545.22;;;5.28;66.60
64853;BME280;56050;55.558;-4.644;2023-02-05T10:15:48;104545.84;;;5.41;66.51
64853;BME280;56050;55.558;-4.644;2023-02-05T10:36:39;104587.19;;;6.02;66.24
64853;BME280;56050;55.558;-4.644;2023-02-05T10:39:05;104590.44;;;6.14;66.12
64853;BME280;56050;55.558;-4.644;2023-02-05T10:41:42;104563.16;;;6.22;66.14
64853;BME280;56050;55.558;-4.644;2023-02-05T10:44:38;104585.69;;;6.31;66.14
64853;BME280;56050;55.558;-4.644;2023-02-05T10:47:10;104602.88;;;6.40;66.09
64853;BME280;56050;55.558;-4.644;2023-02-05T10:49:46;104584.13;;;6.50;65.91
64853;BME280;56050;55.558;-4.644;2023-02-05T10:52:15;104598.09;;;6.57;66.11
64853;BME280;56050;55.558;-4.644;2023-02-05T10:54:41;104580.44;;;6.66;66.14
64853;BME280;56050;55.558;-4.644;2023-02-05T10:57:16;104562.22;;;6.73;65.78
64853;BME280;56050;55.558;-4.644;2023-02-05T11:00:02;104551.25;;;6.80;65.77
64853;BME280;56050;55.558;-4.644;2023-02-05T11:02:37;104562.53;;;6.87;65.79
64853;BME280;56050;55.558;-4.644;2023-02-05T11:05:39;104566.81;;;6.93;65.66
64853;BME280;56050;55.558;-4.644;2023-02-05T11:07:57;104548.59;;;7.00;65.65
64853;BME280;56050;55.558;-4.644;2023-02-05T11:10:27;104546.44;;;7.07;65.48
64853;BME280;56050;55.558;-4.644;2023-02-05T11:13:13;104518.28;;;7.15;65.26
64853;BME280;56050;55.558;-4.644;2023-02-05T11:16:02;104522.59;;;7.21;65.30
64853;BME280;56050;55.558;-4.644;2023-02-05T11:18:33;104534.88;;;7.27;65.29
64853;BME280;56050;55.558;-4.644;2023-02-05T11:21:02;104533.28;;;7.36;64.56
64853;BME280;56050;55.558;-4.644;2023-02-05T11:23:29;104533.53;;;7.44;64.78
64853;BME280;56050;55.558;-4.644;2023-02-05T11:25:59;104505.84;;;7.54;64.54
64853;BME280;56050;55.558;-4.644;2023-02-05T11:28:27;104476.34;;;7.64;64.29
64853;BME280;56050;55.558;-4.644;2023-02-05T11:30:54;104487.03;;;7.74;63.62
64853;BME280;56050;55.558;-4.644;2023-02-05T11:41:10;104505.66;;;8.09;62.68
64853;BME280;56050;55.558;-4.644;2023-02-05T11:43:48;104503.19;;;8.18;62.56
64853;BME280;56050;55.558;-4.644;2023-02-05T11:46:20;104505.88;;;8.28;62.70
64853;BME280;56050;55.558;-4.644;2023-02-05T11:53:59;104494.25;;;8.38;61.52
64853;BME280;56050;55.558;-4.644;2023-02-05T11:56:26;104508.19;;;8.40;61.69
64853;BME280;56050;55.558;-4.644;2023-02-05T11:59:03;104503.63;;;8.40;61.80
64853;BME280;56050;55.558;-4.644;2023-02-05T12:01:32;104485.06;;;8.44;61.78
64853;BME280;56050;55.558;-4.644;2023-02-05T12:09:09;104458.97;;;8.49;61.31
64853;BME280;56050;55.558;-4.644;2023-02-05T12:17:50;104478.84;;;8.48;61.79
64853;BME280;56050;55.558;-4.644;2023-02-05T12:23:13;104492.84;;;8.50;61.87
64853;BME280;56050;55.558;-4.644;2023-02-05T12:28:41;104489.84;;;8.52;61.94
64853;BME280;56050;55.558;-4.644;2023-02-05T12:31:20;104483.91;;;8.55;61.93
64853;BME280;56050;55.558;-4.644;2023-02-05T12:36:46;104486.56;;;8.60;61.88
64853;BME280;56050;55.558;-4.644;2023-02-05T12:39:25;104486.31;;;8.61;61.94
64853;BME280;56050;55.558;-4.644;2023-02-05T12:48:03;104481.69;;;8.62;61.64
64853;BME280;56050;55.558;-4.644;2023-02-05T12:58:45;104464.34;;;8.83;61.63
64853;BME280;56050;55.558;-4.644;2023-02-05T13:01:18;104466.69;;;8.90;61.60
64853;BME280;56050;55.558;-4.644;2023-02-05T13:03:50;104462.81;;;9.01;61.87
64853;BME280;56050;55.558;-4.644;2023-02-05T13:06:22;104474.31;;;9.11;61.66
64853;BME280;56050;55.558;-4.644;2023-02-05T13:09:00;104481.47;;;9.21;61.61
64853;BME280;56050;55.558;-4.644;2023-02-05T13:11:34;104478.94;;;9.29;61.17
64853;BME280;56050;55.558;-4.644;2023-02-05T13:16:40;104470.75;;;9.39;61.21
64853;BME280;56050;55.558;-4.644;2023-02-05T13:19:24;104461.03;;;9.43;60.66
64853;BME280;56050;55.558;-4.644;2023-02-05T13:21:52;104452.41;;;9.47;60.80
64853;BME280;56050;55.558;-4.644;2023-02-05T13:24:54;104448.03;;;9.51;60.89
64853;BME280;56050;55.558;-4.644;2023-02-05T13:27:47;104461.41;;;9.56;60.43
64853;BME280;56050;55.558;-4.644;2023-02-05T13:30:45;104450.06;;;9.59;60.75
64853;BME280;56050;55.558;-4.644;2023-02-05T13:33:14;104453.31;;;9.61;60.53
64853;BME280;56050;55.558;-4.644;2023-02-05T13:35:46;104450.63;;;9.61;60.56
64853;BME280;56050;55.558;-4.644;2023-02-05T13:41:29;104455.94;;;9.66;60.63
64853;BME280;56050;55.558;-4.644;2023-02-05T13:44:12;104449.16;;;9.68;60.75
64853;BME280;56050;55.558;-4.644;2023-02-05T13:58:08;104437.25;;;9.93;60.63
64853;BME280;56050;55.558;-4.644;2023-02-05T14:00:36;104431.56;;;9.94;60.69
64853;BME280;56050;55.558;-4.644;2023-02-05T14:03:04;104425.69;;;9.92;60.65
64853;BME280;56050;55.558;-4.644;2023-02-05T14:05:38;104426.47;;;9.93;60.59
64853;BME280;56050;55.558;-4.644;2023-02-05T14:08:05;104428.38;;;9.92;60.82
64853;BME280;56050;55.558;-4.644;2023-02-05T14:10:43;104436.75;;;9.91;60.74
64853;BME280;56050;55.558;-4.644;2023-02-05T14:13:28;104431.63;;;9.89;60.77
64853;BME280;56050;55.558;-4.644;2023-02-05T14:19:03;104428.72;;;9.86;60.91
64853;BME280;56050;55.558;-4.644;2023-02-05T14:26:55;104418.56;;;9.83;60.88
64853;BME280;56050;55.558;-4.644;2023-02-05T14:29:42;104422.59;;;9.80;61.11
64853;BME280;56050;55.558;-4.644;2023-02-05T14:37:44;104409.75;;;9.77;61.12
64853;BME280;56050;55.558;-4.644;2023-02-05T14:40:31;104397.88;;;9.78;61.23
64853;BME280;56050;55.558;-4.644;2023-02-05T14:45:45;104415.31;;;9.81;61.32
64853;BME280;56050;55.558;-4.644;2023-02-05T14:48:27;104418.03;;;9.81;61.27
64853;BME280;56050;55.558;-4.644;2023-02-05T14:51:07;104412.63;;;9.81;61.27
64853;BME280;56050;55.558;-4.644;2023-02-05T14:53:34;104415.31;;;9.81;61.22
64853;BME280;56050;55.558;-4.644;2023-02-05T14:56:02;104417.75;;;9.82;61.30
64853;BME280;56050;55.558;-4.644;2023-02-05T14:58:33;104413.16;;;9.83;61.30
64853;BME280;56050;55.558;-4.644;2023-02-05T15:04:01;104406.41;;;9.85;61.42
64853;BME280;56050;55.558;-4.644;2023-02-05T15:06:29;104414.19;;;9.87;61.35
64853;BME280;56050;55.558;-4.644;2023-02-05T15:09:11;104407.97;;;9.86;61.39
64853;BME280;56050;55.558;-4.644;2023-02-05T15:12:14;104396.94;;;9.88;61.40
64853;BME280;56050;55.558;-4.644;2023-02-05T15:14:52;104396.06;;;9.92;61.19
64853;BME280;56050;55.558;-4.644;2023-02-05T15:20:11;104382.50;;;9.97;61.46
64853;BME280;56050;55.558;-4.644;2023-02-05T15:22:47;104382.22;;;9.99;61.35